Time;durP1;ratioP1;P1;durP2;ratioP2;P2;SDS_P1;SDS_P2;PMS_P1;PMS_P2;Temp;Humidity;BMP_temperature;BMP_pressure;BME280_temperature;BME280_humidity;BME280_pressure;Samples;Min_cycle;Max_cycle;Signal;HPM_P1;HPM_P2
2023/12/18 11:03:54;;;;;;;21.50;9.80;;;;;;;6.20;74.08;100111.61;101984;1291;637106;-75
2023/12/18 11:06:22;;;;;;;19.50;9.20;;;;;;;6.22;73.72;100109.96;105666;1260;94422;-73
2023/12/18 11:08:49;;;;;;;20.30;9.70;;;;;;;6.23;74.22;100102.17;105603;1267;94295;-75
2023/12/18 11:11:18;;;;;;;20.80;9.20;;;;;;;6.24;74.20;100097.56;105410;1259;94301;-73
2023/12/18 11:13:59;;;;;;;20.00;8.90;;;;;;;6.27;73.97;100097.13;105389;1260;95428;-75
2023/12/18 11:16:55;;;;;;;23.30;10.00;;;;;;;6.28;74.14;100093.02;105304;1258;107728;-75
2023/12/18 11:19:47;;;;;;;21.10;9.70;;;;;;;6.29;73.89;100100.39;105270;1260;94318;-75
2023/12/18 11:22:23;;;;;;;21.60;9.80;;;;;;;6.29;74.15;100099.34;105297;1259;94280;-73
2023/12/18 11:24:49;;;;;;;21.90;9.70;;;;;;;6.29;73.90;100096.15;105537;1256;107268;-75
2023/12/18 11:27:17;;;;;;;24.10;10.40;;;;;;;6.30;73.90;100091.33;105521;1257;94924;-73
2023/12/18 11:29:48;;;;;;;23.30;10.60;;;;;;;6.32;73.75;100093.73;105303;1264;95329;-74
2023/12/18 11:32:46;;;;;;;24.30;10.30;;;;;;;6.33;73.80;100091.94;105582;1257;96271;-75
2023/12/18 11:35:15;;;;;;;24.20;10.30;;;;;;;6.35;73.86;100093.45;105475;1257;95277;-75
2023/12/18 11:37:47;;;;;;;23.70;9.70;;;;;;;6.35;73.84;100087.98;105593;1259;108513;-73
2023/12/18 11:40:32;;;;;;;21.50;9.00;;;;;;;6.36;73.90;100086.17;105554;1257;95260;-75
2023/12/18 11:42:59;;;;;;;23.60;10.90;;;;;;;6.37;73.73;100081.02;105393;1267;107733;-73
2023/12/18 11:45:26;;;;;;;20.50;8.40;;;;;;;6.39;73.88;100075.30;105497;1258;95343;-74
2023/12/18 11:47:57;;;;;;;22.00;9.20;;;;;;;6.40;73.82;100074.38;105413;1256;95339;-75
2023/12/18 11:50:25;;;;;;;21.50;9.10;;;;;;;6.42;73.34;100075.23;105756;1257;108008;-76
2023/12/18 11:52:55;;;;;;;20.70;9.20;;;;;;;6.44;73.73;100074.59;105427;1256;95220;-74
2023/12/18 11:55:36;;;;;;;22.30;10.30;;;;;;;6.47;73.52;100079.25;105531;1265;107245;-75
2023/12/18 11:58:04;;;;;;;20.70;9.00;;;;;;;6.49;73.34;100079.48;105426;1267;95244;-73
2023/12/18 12:00:31;;;;;;;21.30;8.90;;;;;;;6.51;73.39;100081.37;105468;1257;95735;-76
2023/12/18 12:02:58;;;;;;;20.80;9.00;;;;;;;6.53;73.46;100082.36;105405;1264;108200;-74
2023/12/18 12:05:25;;;;;;;20.80;9.30;;;;;;;6.55;73.43;100078.73;105417;1264;95272;-74
2023/12/18 12:07:52;;;;;;;22.00;9.10;;;;;;;6.55;73.47;100077.32;105435;1264;95259;-75
2023/12/18 12:10:19;;;;;;;21.00;9.50;;;;;;;6.57;73.35;100076.55;105644;1254;95333;-75
2023/12/18 12:12:55;;;;;;;22.40;10.00;;;;;;;6.58;73.56;100074.77;105545;1256;95679;-74
2023/12/18 12:15:24;;;;;;;28.30;12.80;;;;;;;6.58;73.67;100073.19;105090;1257;109340;-74
2023/12/18 12:17:51;;;;;;;26.30;11.90;;;;;;;6.56;72.86;100072.35;105454;1267;95355;-75
2023/12/18 12:20:17;;;;;;;28.20;12.30;;;;;;;6.56;73.03;100074.48;105630;1255;95265;-73
2023/12/18 12:22:44;;;;;;;23.20;10.30;;;;;;;6.54;72.91;100073.30;105628;1255;95249;-75
2023/12/18 12:25:11;;;;;;;21.50;9.70;;;;;;;6.52;73.19;100065.11;105251;1257;95410;-74
2023/12/18 12:27:38;;;;;;;22.50;10.60;;;;;;;6.52;72.79;100064.44;105434;1254;95199;-75
2023/12/18 12:30:05;;;;;;;20.90;9.60;;;;;;;6.50;73.00;100068.01;105509;1257;95171;-75
2023/12/18 12:32:32;;;;;;;20.70;9.60;;;;;;;6.49;73.01;100070.34;105545;1254;95442;-73
2023/12/18 12:34:58;;;;;;;22.10;10.00;;;;;;;6.47;73.15;100067.61;105547;1252;95269;-75
2023/12/18 12:37:25;;;;;;;20.00;9.20;;;;;;;6.46;73.12;100071.01;105466;1253;95346;-75
2023/12/18 12:39:58;;;;;;;19.50;9.00;;;;;;;6.46;73.13;100072.59;105699;1257;95246;-74
2023/12/18 12:42:26;;;;;;;;;;;;;;;6.45;73.15;100072.09;105558;1257;106720;-75
2023/12/18 12:44:53;;;;;;;20.20;9.30;;;;;;;6.43;73.22;100065.31;105374;1266;95263;-74
2023/12/18 12:47:19;;;;;;;20.50;9.20;;;;;;;6.42;72.71;100059.36;105651;1256;95349;-75
2023/12/18 12:49:47;;;;;;;20.70;9.70;;;;;;;6.41;73.05;100064.51;105119;1254;95759;-74
2023/12/18 12:52:14;;;;;;;22.60;9.60;;;;;;;6.40;73.03;100064.70;105509;1260;96174;-74
2023/12/18 12:54:42;;;;;;;22.70;10.80;;;;;;;6.40;72.94;100064.71;105236;1258;95704;-75
2023/12/18 12:57:08;;;;;;;21.70;10.10;;;;;;;6.39;72.82;100063.52;105506;1266;95260;-74
2023/12/18 12:59:35;;;;;;;21.10;10.10;;;;;;;6.38;72.89;100062.86;105314;1257;95330;-75
2023/12/18 13:02:04;;;;;;;24.40;11.10;;;;;;;6.37;72.56;100059.70;105286;1257;95262;-75
2023/12/18 13:04:31;;;;;;;23.00;10.60;;;;;;;6.36;72.80;100065.90;105477;1256;95348;-74
2023/12/18 13:06:57;;;;;;;22.70;10.30;;;;;;;6.36;72.72;100068.91;105405;1267;95350;-75
2023/12/18 13:09:23;;;;;;;24.40;10.80;;;;;;;6.36;73.01;100063.63;105564;1254;95234;-73
2023/12/18 13:11:50;;;;;;;26.50;11.40;;;;;;;6.35;72.78;100056.25;105416;1258;95289;-74
2023/12/18 13:14:16;;;;;;;35.40;14.10;;;;;;;6.34;72.69;100054.20;105446;1257;95958;-75
2023/12/18 13:16:43;;;;;;;42.30;15.30;;;;;;;6.32;72.66;100043.73;105216;1258;95353;-74
2023/12/18 13:19:09;;;;;;;38.80;14.80;;;;;;;6.30;72.62;100037.64;105192;1257;95208;-74
2023/12/18 13:21:37;;;;;;;31.80;12.50;;;;;;;6.28;72.17;100033.48;105291;1259;96088;-75
2023/12/18 13:24:04;;;;;;;27.10;12.70;;;;;;;6.24;72.02;100041.02;105143;1257;95220;-75
2023/12/18 13:26:30;;;;;;;24.80;11.20;;;;;;;6.21;72.08;100037.09;105466;1253;95368;-75
2023/12/18 13:28:56;;;;;;;26.90;12.60;;;;;;;6.19;72.22;100047.92;105417;1256;95241;-75
2023/12/18 13:31:23;;;;;;;26.60;12.70;;;;;;;6.17;71.83;100050.61;105222;1265;95388;-74
2023/12/18 13:33:49;;;;;;;26.40;11.50;;;;;;;6.14;71.91;100045.64;105220;1268;95646;-75
2023/12/18 13:36:16;;;;;;;28.10;12.10;;;;;;;6.10;71.31;100047.02;105441;1266;95318;-74
2023/12/18 13:38:43;;;;;;;28.10;13.40;;;;;;;6.06;71.78;100048.59;105422;1261;96185;-75
2023/12/18 13:41:09;;;;;;;27.60;11.50;;;;;;;6.04;71.92;100058.35;105253;1256;95264;-75
2023/12/18 13:43:39;;;;;;;26.70;11.80;;;;;;;6.02;71.44;100063.89;105426;1256;108908;-75
2023/12/18 13:46:06;;;;;;;24.90;11.30;;;;;;;5.98;71.76;100061.35;105610;1254;95672;-75
2023/12/18 13:48:33;;;;;;;24.20;10.30;;;;;;;5.95;71.73;100070.44;105431;1257;95291;-74
2023/12/18 13:51:00;;;;;;;23.50;11.20;;;;;;;5.93;72.12;100066.29;105391;1264;95272;-74
2023/12/18 13:53:26;;;;;;;26.40;11.70;;;;;;;5.91;72.09;100078.86;105500;1253;95297;-74
2023/12/18 13:55:53;;;;;;;25.10;10.90;;;;;;;5.88;71.57;100078.81;105474;1254;95266;-75
2023/12/18 13:58:20;;;;;;;25.00;12.00;;;;;;;5.84;71.92;100086.17;105501;1266;107289;-75
2023/12/18 14:00:47;;;;;;;24.20;10.80;;;;;;;5.79;71.47;100085.10;105155;1254;95248;-75
2023/12/18 14:03:15;;;;;;;23.20;11.30;;;;;;;5.74;70.97;100079.31;105493;1255;96219;-74
2023/12/18 14:05:42;;;;;;;24.20;11.60;;;;;;;5.67;71.61;100077.11;105448;1254;108075;-73
2023/12/18 14:08:09;;;;;;;52.00;20.30;;;;;;;5.63;71.68;100076.72;105431;1257;95321;-76
2023/12/18 14:10:35;;;;;;;37.90;18.00;;;;;;;5.59;71.51;100080.02;105292;1257;96881;-75
2023/12/18 14:13:02;;;;;;;26.20;12.40;;;;;;;5.56;71.83;100081.52;105733;1258;95269;-74
2023/12/18 14:15:29;;;;;;;27.00;13.20;;;;;;;5.52;71.54;100074.98;105583;1254;108639;-74
2023/12/18 14:17:55;;;;;;;29.90;15.50;;;;;;;5.46;71.71;100079.77;105099;1257;95327;-75
2023/12/18 14:20:23;;;;;;;31.30;16.80;;;;;;;5.42;71.65;100081.33;105346;1257;95326;-74
2023/12/18 14:22:49;;;;;;;35.50;18.30;;;;;;;5.38;71.10;100083.23;105751;1254;95246;-74
2023/12/18 14:25:15;;;;;;;45.00;22.10;;;;;;;5.31;71.64;100087.33;105744;1256;95234;-76
2023/12/18 14:27:42;;;;;;;33.40;17.00;;;;;;;5.26;71.34;100080.13;105647;1257;95522;-78
2023/12/18 14:30:09;;;;;;;33.20;17.60;;;;;;;5.19;70.96;100076.85;105361;1257;95275;-74
2023/12/18 14:32:35;;;;;;;26.80;13.90;;;;;;;5.12;71.58;100068.27;105502;1257;95267;-73
2023/12/18 14:35:02;;;;;;;34.90;17.60;;;;;;;5.11;71.69;100063.55;105667;1256;96132;-74
2023/12/18 14:37:29;;;;;;;42.00;20.10;;;;;;;5.07;70.71;100057.20;105723;1254;95246;-74
2023/12/18 14:39:55;;;;;;;40.60;20.20;;;;;;;5.00;70.85;100048.65;105414;1257;107544;-73
2023/12/18 14:42:22;;;;;;;38.30;18.60;;;;;;;4.97;71.47;100052.08;105592;1258;95269;-74
2023/12/18 14:44:48;;;;;;;33.30;16.80;;;;;;;4.98;71.40;100048.02;105245;1257;95329;-75
2023/12/18 14:47:15;;;;;;;38.00;19.00;;;;;;;4.97;71.36;100048.74;105743;1254;95267;-77
2023/12/18 14:49:41;;;;;;;45.60;22.40;;;;;;;4.96;70.91;100047.55;105428;1256;95202;-77
2023/12/18 14:52:08;;;;;;;37.20;17.80;;;;;;;4.92;70.92;100049.41;105439;1251;95745;-77
2023/12/18 14:54:37;;;;;;;32.30;16.70;;;;;;;4.88;71.28;100066.61;105527;1255;95239;-77
2023/12/18 14:57:03;;;;;;;35.10;16.50;;;;;;;4.86;71.16;100074.76;105867;1253;95333;-77
2023/12/18 14:59:30;;;;;;;32.90;15.90;;;;;;;4.84;71.15;100082.55;105381;1254;95209;-76
2023/12/18 15:01:56;;;;;;;28.70;14.30;;;;;;;4.84;71.42;100081.70;105822;1255;95273;-77
2023/12/18 15:04:27;;;;;;;30.50;16.70;;;;;;;4.85;71.37;100085.34;105760;1255;95220;-77
2023/12/18 15:06:57;;;;;;;33.30;16.60;;;;;;;4.86;71.50;100091.98;105831;1254;95237;-77
2023/12/18 15:09:24;;;;;;;31.00;15.90;;;;;;;4.87;71.32;100093.54;105789;1253;107904;-77
2023/12/18 15:11:51;;;;;;;33.60;17.80;;;;;;;4.86;71.27;100094.80;105399;1254;97526;-75
2023/12/18 15:14:17;;;;;;;33.40;17.30;;;;;;;4.87;71.34;100094.06;105405;1272;97109;-76
2023/12/18 15:16:43;;;;;;;29.60;15.60;;;;;;;4.88;71.36;100096.67;105712;1254;96618;-78
2023/12/18 15:19:10;;;;;;;29.90;15.70;;;;;;;4.89;71.26;100093.98;105670;1257;108705;-77
2023/12/18 15:21:39;;;;;;;31.90;15.80;;;;;;;4.89;71.28;100092.59;105583;1255;96586;-78
2023/12/18 15:24:06;;;;;;;38.70;19.50;;;;;;;4.90;71.38;100089.39;105455;1254;107805;-76
2023/12/18 15:26:37;;;;;;;39.70;20.80;;;;;;;4.90;71.43;100087.80;105482;1254;96622;-77
2023/12/18 15:29:04;;;;;;;33.70;17.40;;;;;;;4.91;71.40;100091.33;105464;1253;96804;-76
2023/12/18 15:31:30;;;;;;;39.10;20.00;;;;;;;4.89;71.21;100084.16;105223;1256;99922;-77
2023/12/18 15:33:57;;;;;;;33.70;16.80;;;;;;;4.85;71.20;100082.35;105511;1253;96692;-77
2023/12/18 15:36:23;;;;;;;35.10;18.30;;;;;;;4.83;71.23;100087.17;105573;1263;96689;-78
2023/12/18 15:38:50;;;;;;;37.80;20.00;;;;;;;4.82;71.08;100077.89;105378;1253;97619;-78
2023/12/18 15:41:16;;;;;;;38.20;20.70;;;;;;;4.80;71.25;100087.78;105323;1252;109293;-78
2023/12/18 15:43:43;;;;;;;40.00;22.00;;;;;;;4.80;71.31;100090.09;105465;1260;96680;-78
2023/12/18 15:46:09;;;;;;;35.60;20.10;;;;;;;4.78;71.33;100091.54;105474;1256;96696;-78
2023/12/18 15:48:36;;;;;;;35.90;20.90;;;;;;;4.76;71.15;100091.59;105515;1258;96620;-78
2023/12/18 15:51:04;;;;;;;32.00;16.00;;;;;;;4.76;71.21;100098.98;105413;1254;110217;-75
2023/12/18 15:53:31;;;;;;;34.00;17.20;;;;;;;4.76;71.29;100103.55;105664;1254;96534;-77
2023/12/18 15:55:58;;;;;;;31.10;15.80;;;;;;;4.75;71.16;100112.70;105478;1257;106555;-78
2023/12/18 15:58:24;;;;;;;28.60;13.90;;;;;;;4.75;71.31;100115.38;105230;1267;96627;-78
2023/12/18 16:00:51;;;;;;;26.90;13.00;;;;;;;4.74;71.31;100107.47;105466;1256;96706;-78
2023/12/18 16:03:18;;;;;;;29.50;13.80;;;;;;;4.74;71.28;100101.49;105667;1256;96631;-79
2023/12/18 16:05:45;;;;;;;28.50;15.10;;;;;;;4.74;71.31;100096.94;105436;1253;96652;-78
2023/12/18 16:08:12;;;;;;;33.80;16.90;;;;;;;4.74;71.25;100093.76;105571;1257;96707;-77
2023/12/18 16:10:38;;;;;;;34.80;15.40;;;;;;;4.74;71.06;100089.20;105709;1257;97931;-76
2023/12/18 16:13:05;;;;;;;33.00;15.20;;;;;;;4.70;70.90;100092.33;105528;1256;97953;-77
2023/12/18 16:15:33;;;;;;;33.20;16.00;;;;;;;4.67;71.17;100100.16;105675;1257;96611;-78
2023/12/18 16:17:59;;;;;;;35.30;17.30;;;;;;;4.67;71.20;100103.51;105418;1256;96605;-77
2023/12/18 16:20:27;;;;;;;31.70;15.00;;;;;;;4.66;71.17;100104.59;105450;1267;96546;-76
2023/12/18 16:22:53;;;;;;;56.60;32.40;;;;;;;4.66;71.22;100101.95;105600;1264;96679;-77
2023/12/18 16:25:20;;;;;;;79.00;41.30;;;;;;;4.65;71.10;100101.47;105522;1256;96785;-77
2023/12/18 16:27:46;;;;;;;63.10;33.90;;;;;;;4.64;71.11;100106.92;105393;1266;107653;-77
2023/12/18 16:30:13;;;;;;;46.20;24.10;;;;;;;4.62;71.19;100109.96;105716;1256;96672;-75
2023/12/18 16:32:41;;;;;;;40.70;21.70;;;;;;;4.61;71.23;100107.52;105646;1256;97253;-78
2023/12/18 16:35:08;;;;;;;43.10;24.70;;;;;;;4.62;71.10;100120.86;105586;1267;96621;-75
2023/12/18 16:37:34;;;;;;;36.60;17.80;;;;;;;4.61;71.15;100119.83;105451;1257;96510;-77
2023/12/18 16:40:01;;;;;;;30.50;15.50;;;;;;;4.60;71.12;100125.31;105586;1258;96857;-77
2023/12/18 16:42:27;;;;;;;30.20;15.70;;;;;;;4.59;71.18;100128.14;105773;1253;97266;-76
2023/12/18 16:44:54;;;;;;;33.90;20.50;;;;;;;4.59;71.18;100128.67;105363;1258;109685;-76
2023/12/18 16:47:20;;;;;;;29.50;14.40;;;;;;;4.61;71.26;100135.66;105315;1257;97526;-78
2023/12/18 16:49:50;;;;;;;31.50;14.90;;;;;;;4.62;71.32;100138.10;105597;1265;96636;-79
2023/12/18 16:52:17;;;;;;;30.30;14.50;;;;;;;4.64;71.29;100140.85;105531;1253;96678;-77
2023/12/18 16:54:43;;;;;;;38.10;16.60;;;;;;;4.64;71.25;100143.82;105456;1264;96635;-77
2023/12/18 16:57:10;;;;;;;38.10;18.10;;;;;;;4.66;71.19;100140.95;105447;1256;96671;-77
2023/12/18 16:59:40;;;;;;;39.30;17.10;;;;;;;4.67;71.21;100138.30;105799;1257;96608;-77
2023/12/18 17:02:07;;;;;;;40.90;19.30;;;;;;;4.67;71.22;100135.84;105538;1258;107705;-76
2023/12/18 17:04:33;;;;;;;39.80;18.80;;;;;;;4.67;71.19;100133.73;105457;1255;96655;-76
2023/12/18 17:07:00;;;;;;;51.70;23.80;;;;;;;4.67;71.30;100131.26;105191;1256;96753;-76
2023/12/18 17:09:27;;;;;;;61.60;27.40;;;;;;;4.66;71.16;100129.88;105479;1268;96624;-78
2023/12/18 17:11:53;;;;;;;79.50;31.60;;;;;;;4.66;71.18;100128.85;105506;1257;97573;-77
2023/12/18 17:14:20;;;;;;;57.60;23.60;;;;;;;4.66;71.22;100128.48;105327;1257;97929;-78
2023/12/18 17:16:46;;;;;;;71.00;31.90;;;;;;;4.66;71.21;100126.73;105282;1259;96826;-76
2023/12/18 17:19:13;;;;;;;52.80;24.10;;;;;;;4.66;71.28;100126.39;105264;1258;96655;-76
2023/12/18 17:21:39;;;;;;;63.10;31.10;;;;;;;4.65;71.28;100124.48;105387;1257;98012;-74
2023/12/18 17:24:07;;;;;;;68.80;35.60;;;;;;;4.64;71.23;100123.61;105386;1256;96602;-74
2023/12/18 17:26:33;;;;;;;64.90;33.90;;;;;;;4.64;71.12;100121.87;105611;1258;96637;-73
2023/12/18 17:29:00;;;;;;;47.80;25.20;;;;;;;4.64;71.21;100116.94;105581;1255;96647;-74
2023/12/18 17:31:29;;;;;;;44.30;24.10;;;;;;;4.65;71.24;100113.75;105498;1256;97273;-77
2023/12/18 17:33:56;;;;;;;38.00;18.90;;;;;;;4.66;71.24;100113.18;105734;1256;107811;-71
2023/12/18 17:36:23;;;;;;;34.80;18.00;;;;;;;4.67;71.13;100114.92;105725;1255;96503;-74
2023/12/18 17:38:52;;;;;;;33.70;16.90;;;;;;;4.68;71.29;100114.71;105789;1252;98223;-74
2023/12/18 17:41:19;;;;;;;34.40;17.50;;;;;;;4.68;71.19;100109.80;105509;1252;109617;-75
2023/12/18 17:43:47;;;;;;;35.00;17.30;;;;;;;4.69;71.13;100113.27;105645;1252;96600;-73
2023/12/18 17:46:13;;;;;;;36.20;17.70;;;;;;;4.69;71.16;100113.98;105819;1256;97435;-74
2023/12/18 17:48:40;;;;;;;35.50;17.30;;;;;;;4.68;71.17;100109.96;105515;1266;96672;-73
2023/12/18 17:51:07;;;;;;;33.50;17.10;;;;;;;4.68;71.17;100112.44;105641;1253;96629;-73
2023/12/18 17:53:36;;;;;;;31.50;14.70;;;;;;;4.67;71.15;100109.45;105771;1257;96627;-73
2023/12/18 17:56:03;;;;;;;31.90;15.60;;;;;;;4.68;71.17;100108.39;105567;1251;96676;-74
2023/12/18 17:58:31;;;;;;;31.80;14.80;;;;;;;4.67;71.11;100101.93;105466;1253;106230;-73
2023/12/18 18:00:57;;;;;;;30.70;15.10;;;;;;;4.67;71.11;100104.02;105703;1256;96858;-73
2023/12/18 18:03:24;;;;;;;29.50;14.20;;;;;;;4.69;71.26;100102.55;105673;1255;96602;-74
2023/12/18 18:05:51;;;;;;;27.40;13.30;;;;;;;4.71;71.22;100103.17;105470;1254;97158;-74
2023/12/18 18:08:17;;;;;;;30.30;14.40;;;;;;;4.72;71.12;100100.00;105710;1256;96666;-74
2023/12/18 18:10:46;;;;;;;34.00;17.30;;;;;;;4.71;70.82;100095.27;105762;1255;97948;-75
2023/12/18 18:13:12;;;;;;;42.30;19.10;;;;;;;4.71;70.97;100091.77;105530;1253;96578;-75
2023/12/18 18:15:39;;;;;;;45.50;20.90;;;;;;;4.71;71.05;100093.69;105535;1251;97099;-73
2023/12/18 18:18:06;;;;;;;43.30;20.70;;;;;;;4.71;71.13;100095.80;105588;1252;97026;-76
2023/12/18 18:20:34;;;;;;;40.60;20.30;;;;;;;4.73;71.10;100096.44;105513;1252;96603;-76
2023/12/18 18:23:01;;;;;;;44.30;21.90;;;;;;;4.74;71.10;100098.00;105299;1253;96674;-75
2023/12/18 18:25:27;;;;;;;90.10;37.90;;;;;;;4.74;71.16;100105.36;105428;1256;96731;-75
2023/12/18 18:27:53;;;;;;;150.20;53.70;;;;;;;4.75;71.16;100105.34;105541;1255;96604;-75
2023/12/18 18:30:20;;;;;;;44.40;18.10;;;;;;;4.76;71.13;100106.53;105645;1258;108905;-76
2023/12/18 18:32:47;;;;;;;32.90;15.00;;;;;;;4.75;70.90;100108.51;105782;1255;97922;-75
2023/12/18 18:35:13;;;;;;;31.00;14.70;;;;;;;4.74;70.98;100105.73;105493;1256;96591;-74
2023/12/18 18:37:40;;;;;;;32.10;15.30;;;;;;;4.72;71.00;100103.32;105447;1258;96703;-76
2023/12/18 18:40:08;;;;;;;33.20;17.50;;;;;;;4.72;70.93;100105.10;105781;1255;97532;-77
2023/12/18 18:42:35;;;;;;;28.60;13.40;;;;;;;4.70;71.01;100102.36;105453;1257;97400;-75
2023/12/18 18:45:01;;;;;;;26.50;13.70;;;;;;;4.68;71.00;100092.93;105661;1257;97905;-75
2023/12/18 18:47:27;;;;;;;27.80;14.20;;;;;;;4.67;71.03;100099.98;105269;1259;96544;-75
2023/12/18 18:49:54;;;;;;;28.90;14.00;;;;;;;4.66;71.01;100098.42;105687;1253;97524;-76
2023/12/18 18:52:21;;;;;;;28.80;14.80;;;;;;;4.65;71.09;100097.25;105609;1263;97925;-75
2023/12/18 18:54:48;;;;;;;29.60;14.80;;;;;;;4.61;70.56;100098.91;105620;1253;96524;-76
2023/12/18 18:57:14;;;;;;;27.90;13.90;;;;;;;4.56;70.64;100102.95;105550;1255;96688;-76
2023/12/18 18:59:41;;;;;;;26.70;13.40;;;;;;;4.53;70.82;100108.13;105482;1255;96610;-75
2023/12/18 19:02:08;;;;;;;29.10;13.80;;;;;;;4.53;70.91;100102.88;105571;1259;97080;-75
2023/12/18 19:04:35;;;;;;;30.80;14.70;;;;;;;4.49;70.76;100111.96;105520;1255;96608;-74
2023/12/18 19:07:02;;;;;;;27.50;13.60;;;;;;;4.48;70.94;100111.63;105596;1254;96691;-76
2023/12/18 19:09:28;;;;;;;29.10;14.20;;;;;;;4.49;70.83;100116.53;105556;1252;96599;-76
2023/12/18 19:11:55;;;;;;;31.30;14.90;;;;;;;4.47;70.93;100115.36;105191;1255;96719;-74
2023/12/18 19:14:21;;;;;;;31.40;15.60;;;;;;;4.48;71.01;100116.21;105488;1257;96687;-75
2023/12/18 19:16:48;;;;;;;28.80;14.50;;;;;;;4.46;70.75;100112.05;105381;1256;109649;-74
2023/12/18 19:19:14;;;;;;;35.40;18.10;;;;;;;4.45;71.09;100115.40;105434;1271;96876;-74
2023/12/18 19:21:41;;;;;;;33.20;17.00;;;;;;;4.45;70.81;100113.48;105546;1255;97625;-73
2023/12/18 19:24:08;;;;;;;32.20;15.90;;;;;;;4.45;70.99;100116.48;105685;1256;97508;-73
2023/12/18 19:26:35;;;;;;;33.90;16.40;;;;;;;4.46;71.07;100120.64;105714;1256;96687;-74
2023/12/18 19:29:01;;;;;;;33.30;17.60;;;;;;;4.47;70.90;100119.40;105825;1252;96581;-75
2023/12/18 19:31:34;;;;;;;40.40;20.20;;;;;;;4.45;71.01;100116.64;105604;1253;109369;-75
2023/12/18 19:34:00;;;;;;;40.90;20.50;;;;;;;4.47;71.03;100114.13;105695;1257;96707;-75
2023/12/18 19:36:30;;;;;;;32.70;16.50;;;;;;;4.46;70.96;100112.06;106757;1252;96587;-75
2023/12/18 19:38:56;;;;;;;38.30;17.20;;;;;;;4.46;70.91;100115.39;105683;1256;108854;-76
2023/12/18 19:41:23;;;;;;;33.10;16.20;;;;;;;4.43;70.80;100112.48;105545;1253;97926;-77
2023/12/18 19:43:53;;;;;;;30.10;15.10;;;;;;;4.39;70.78;100112.62;105500;1256;96672;-76
2023/12/18 19:46:20;;;;;;;34.40;16.30;;;;;;;4.36;70.87;100105.14;105539;1257;96988;-75
2023/12/18 19:48:46;;;;;;;33.50;16.00;;;;;;;4.35;70.87;100100.44;105642;1255;96744;-75
2023/12/18 19:51:15;;;;;;;44.10;19.00;;;;;;;4.32;70.84;100096.11;105928;1253;96547;-75
2023/12/18 19:53:42;;;;;;;57.10;21.50;;;;;;;4.30;70.90;100094.95;105481;1255;97552;-74
2023/12/18 19:56:08;;;;;;;47.20;19.30;;;;;;;4.30;70.75;100097.23;105695;1253;96655;-75
2023/12/18 19:58:35;;;;;;;40.80;19.20;;;;;;;4.28;70.81;100090.83;105479;1253;97516;-75
2023/12/18 20:01:04;;;;;;;49.70;19.80;;;;;;;4.23;70.75;100091.33;105805;1253;96595;-75
2023/12/18 20:03:30;;;;;;;42.10;19.80;;;;;;;4.22;70.92;100089.41;105520;1252;96811;-76
2023/12/18 20:05:57;;;;;;;41.20;19.40;;;;;;;4.21;70.77;100085.05;105534;1256;96611;-75
2023/12/18 20:08:24;;;;;;;38.80;19.40;;;;;;;4.17;70.66;100078.67;105685;1253;97550;-75
2023/12/18 20:10:53;;;;;;;43.70;20.90;;;;;;;4.13;70.65;100080.02;105633;1256;96777;-75
2023/12/18 20:13:20;;;;;;;32.60;16.10;;;;;;;4.12;70.83;100077.59;105796;1252;97006;-74
2023/12/18 20:15:47;;;;;;;37.20;18.00;;;;;;;4.10;70.77;100077.83;105785;1255;96651;-75
2023/12/18 20:18:18;;;;;;;35.50;17.40;;;;;;;4.09;70.87;100074.70;105870;1256;96738;-75
2023/12/18 20:20:47;;;;;;;35.70;17.20;;;;;;;4.09;70.88;100075.92;105784;1259;96521;-75
2023/12/18 20:23:14;;;;;;;36.20;18.70;;;;;;;4.08;70.76;100070.33;105856;1252;96591;-74
2023/12/18 20:25:41;;;;;;;35.80;18.20;;;;;;;4.06;70.69;100070.40;105666;1253;96673;-74
2023/12/18 20:28:08;;;;;;;35.40;17.40;;;;;;;4.05;70.83;100067.27;105815;1252;96620;-75
2023/12/18 20:30:34;;;;;;;35.10;17.90;;;;;;;4.04;70.84;100066.27;105351;1252;96604;-75
2023/12/18 20:33:02;;;;;;;32.40;16.50;;;;;;;3.99;70.75;100057.09;105203;1257;96703;-74
2023/12/18 20:35:29;;;;;;;37.90;19.30;;;;;;;3.92;70.63;100059.04;105692;1256;96620;-75
2023/12/18 20:37:55;;;;;;;32.90;16.80;;;;;;;3.88;70.68;100057.20;105417;1252;96586;-75
2023/12/18 20:40:22;;;;;;;37.80;17.70;;;;;;;3.86;70.74;100054.48;105176;1255;107829;-75
2023/12/18 20:42:50;;;;;;;36.70;18.60;;;;;;;3.85;70.86;100046.61;105509;1253;96708;-75
2023/12/18 20:45:17;;;;;;;37.60;18.70;;;;;;;3.84;70.79;100044.55;105479;1256;96527;-75
2023/12/18 20:47:44;;;;;;;35.60;18.60;;;;;;;3.83;70.81;100043.70;105498;1252;96616;-75
2023/12/18 20:50:16;;;;;;;36.10;18.50;;;;;;;3.83;70.95;100042.30;105495;1256;97519;-75
2023/12/18 20:52:45;;;;;;;34.80;16.80;;;;;;;3.84;70.76;100039.12;105811;1256;107446;-76
2023/12/18 20:55:12;;;;;;;37.10;18.00;;;;;;;3.84;70.89;100035.25;105448;1256;96611;-75
2023/12/18 20:57:39;;;;;;;35.60;17.50;;;;;;;3.81;71.04;100034.45;105500;1255;96598;-75
2023/12/18 21:00:08;;;;;;;38.20;17.80;;;;;;;3.81;70.87;100033.58;105456;1256;96615;-76
2023/12/18 21:02:51;;;;;;;33.90;16.90;;;;;;;3.79;70.88;100032.04;105436;1255;96761;-76
2023/12/18 21:05:18;;;;;;;35.60;16.90;;;;;;;3.79;70.74;100030.30;105413;1256;96645;-75
2023/12/18 21:07:44;;;;;;;49.00;17.70;;;;;;;3.78;70.89;100028.03;105482;1255;96585;-75
2023/12/18 21:10:11;;;;;;;32.30;15.90;;;;;;;3.78;70.81;100026.64;105569;1252;97188;-76
2023/12/18 21:12:38;;;;;;;32.00;16.80;;;;;;;3.78;70.98;100025.95;105552;1255;96601;-75
2023/12/18 21:15:05;;;;;;;34.50;16.50;;;;;;;3.77;70.77;100018.06;105481;1258;97572;-75
2023/12/18 21:17:32;;;;;;;32.00;16.60;;;;;;;3.75;70.92;100012.17;105662;1255;96695;-76
2023/12/18 21:19:59;;;;;;;30.30;15.10;;;;;;;3.73;71.08;100014.31;105411;1255;96623;-75
2023/12/18 21:22:27;;;;;;;35.20;17.70;;;;;;;3.74;70.97;100016.23;105538;1254;111841;-75
2023/12/18 21:24:54;;;;;;;32.20;16.60;;;;;;;3.74;70.88;100018.52;105595;1253;96968;-75
2023/12/18 21:27:21;;;;;;;32.70;17.20;;;;;;;3.74;70.80;100020.80;105706;1258;96621;-75
2023/12/18 21:29:48;;;;;;;34.60;16.50;;;;;;;3.73;71.07;100027.84;105290;1257;97436;-74
2023/12/18 21:32:14;;;;;;;32.50;17.70;;;;;;;3.72;70.97;100024.51;107093;1255;96538;-75
2023/12/18 21:34:41;;;;;;;36.50;18.90;;;;;;;3.70;70.68;100026.33;105492;1255;97945;-75
2023/12/18 21:37:07;;;;;;;34.80;18.00;;;;;;;3.66;70.82;100021.20;105502;1253;107199;-75
2023/12/18 21:39:34;;;;;;;33.50;16.40;;;;;;;3.63;70.82;100018.98;108564;1252;94528;-75
2023/12/18 21:42:02;;;;;;;40.90;20.80;;;;;;;3.59;70.71;100011.56;106789;1255;96607;-74
2023/12/18 21:44:30;;;;;;;36.30;18.60;;;;;;;3.56;70.95;100013.75;105498;1255;97424;-75
2023/12/18 21:46:58;;;;;;;38.10;19.30;;;;;;;3.55;70.83;100015.18;105558;1255;96659;-75
2023/12/18 21:49:24;;;;;;;36.40;19.10;;;;;;;3.52;70.76;100011.78;105396;1258;96592;-76
2023/12/18 21:51:50;;;;;;;34.00;17.10;;;;;;;3.49;70.73;100008.16;105414;1253;96681;-75
2023/12/18 21:54:20;;;;;;;36.20;18.10;;;;;;;3.51;70.86;100014.96;105506;1256;96652;-76
2023/12/18 21:56:47;;;;;;;34.90;18.40;;;;;;;3.48;70.76;100006.80;105367;1255;109854;-74
2023/12/18 21:59:14;;;;;;;41.30;21.50;;;;;;;3.44;70.74;100005.16;105240;1255;96535;-74
2023/12/18 22:01:41;;;;;;;36.30;19.70;;;;;;;3.40;70.81;100001.05;105424;1259;96627;-74
2023/12/18 22:04:07;;;;;;;37.70;19.10;;;;;;;3.38;70.95;100002.52;105088;1258;97983;-75
2023/12/18 22:06:34;;;;;;;35.70;18.20;;;;;;;3.38;70.87;100005.52;105149;1268;96630;-74
2023/12/18 22:09:01;;;;;;;35.80;19.00;;;;;;;3.38;70.85;100005.67;105536;1257;96632;-75
2023/12/18 22:11:28;;;;;;;36.60;19.10;;;;;;;3.40;71.00;100005.44;105428;1253;96682;-75
2023/12/18 22:13:54;;;;;;;37.20;19.90;;;;;;;3.40;70.94;100005.09;105207;1255;96623;-74